Time;durP1;ratioP1;P1;durP2;ratioP2;P2;SDS_P1;SDS_P2;PMS_P1;PMS_P2;Temp;Humidity;BMP_temperature;BMP_pressure;BME280_temperature;BME280_humidity;BME280_pressure;Samples;Min_cycle;Max_cycle;Signal;HPM_P1;HPM_P2
2022/11/11 00:01:39;;;;;;;;;;;;;;;;;;5107698;27;19916;-56
2022/11/11 00:04:04;;;;;;;;;;;;;;;;;;5110569;27;20560;-55
2022/11/11 00:06:29;;;;;;;;;;;;;;;;;;5107493;27;19922;-56
2022/11/11 00:08:54;;;;;;;;;;;;;;;;;;5110090;28;19920;-56
2022/11/11 00:11:20;;;;;;;;;;;;;;;;;;5108445;28;19934;-56
2022/11/11 00:13:45;;;;;;;;;;;;;;;;;;5109281;28;19939;-57
2022/11/11 00:16:14;;;;;;;;;;;;;;;;;;5106555;27;20381;-56
2022/11/11 00:27:04;;;;;;;;;;;;;;;;;;5109691;28;19966;-56
2022/11/11 00:29:29;;;;;;;;;;;;;;;;;;5109795;27;19945;-56
2022/11/11 00:34:38;;;;;;;;;;;;;;;;;;5106836;28;19984;-55
2022/11/11 00:37:04;;;;;;;;;;;;;;;;;;5107265;28;20285;-56
2022/11/11 00:39:29;;;;;;;;;;;;;;;;;;5107938;28;19922;-56
2022/11/11 00:41:54;;;;;;;;;;;;;;;;;;5106965;28;19934;-55
2022/11/11 00:44:19;;;;;;;;;;;;;;;;;;5114703;28;19923;-55
2022/11/11 00:52:12;;;;;;;;;;;;;;;;;;5111566;27;20401;-56
2022/11/11 00:54:38;;;;;;;;;;;;;;;;;;5114021;27;19916;-56
2022/11/11 00:57:03;;;;;;;;;;;;;;;;;;5113981;27;20007;-56
2022/11/11 00:59:28;;;;;;;;;;;;;;;;;;5113745;27;19926;-57
2022/11/11 01:01:53;;;;;;;;;;;;;;;;;;5111020;27;19955;-57
2022/11/11 01:04:19;;;;;;;;;;;;;;;;;;5112339;27;19915;-55
2022/11/11 01:06:44;;;;;;;;;;;;;;;;;;5112040;27;20559;-55
2022/11/11 01:09:09;;;;;;;;;;;;;;;;;;5111765;27;19923;-56
2022/11/11 01:11:34;;;;;;;;;;;;;;;;;;5109624;28;20304;-56
2022/11/11 01:14:00;;;;;;;;;;;;;;;;;;5110318;27;19915;-55
2022/11/11 01:16:25;;;;;;;;;;;;;;;;;;5111944;27;19923;-56
2022/11/11 01:18:51;;;;;;;;;;;;;;;;;;5110187;27;20365;-55
2022/11/11 01:21:19;;;;;;;;;;;;;;;;;;5111294;27;19916;-56
2022/11/11 01:23:45;;;;;;;;;;;;;;;;;;5111537;27;19922;-56
2022/11/11 01:26:17;;;;;;;;;;;;;;;;;;5113063;27;19915;-55
2022/11/11 01:28:42;;;;;;;;;;;;;;;;;;5107108;27;20266;-55
2022/11/11 01:31:09;;;;;;;;;;;;;;;;;;5110421;27;19988;-56
2022/11/11 01:33:34;;;;;;;;;;;;;;;;;;5112424;27;19971;-55
2022/11/11 01:36:07;;;;;;;;;;;;;;;;;;5112114;27;20014;-56
2022/11/11 01:38:33;;;;;;;;;;;;;;;;;;5108105;27;19916;-55
2022/11/11 01:40:58;;;;;;;;;;;;;;;;;;5107847;27;19915;-56
2022/11/11 01:43:24;;;;;;;;;;;;;;;;;;5107419;27;20289;-55
2022/11/11 01:45:59;;;;;;;;;;;;;;;;;;5111025;27;19919;-55
2022/11/11 01:51:50;;;;;;;;;;;;;;;;;;5103164;27;20465;-55
2022/11/11 01:54:20;;;;;;;;;;;;;;;;;;5109113;28;19995;-57
2022/11/11 01:56:47;;;;;;;;;;;;;;;;;;5111271;28;20108;-55
2022/11/11 01:59:15;;;;;;;;;;;;;;;;;;5111272;28;19951;-55
2022/11/11 02:01:45;;;;;;;;;;;;;;;;;;5109493;28;19919;-56
2022/11/11 02:06:56;;;;;;;;;;;;;;;;;;5110117;27;20008;-55
2022/11/11 02:09:23;;;;;;;;;;;;;;;;;;5109494;27;19920;-57
2022/11/11 02:14:36;;;;;;;;;;;;;;;;;;5115348;27;19927;-56
2022/11/11 02:17:04;;;;;;;;;;;;;;;;;;5108876;27;19915;-56
2022/11/11 02:19:49;;;;;;;;;;;;;;;;;;5111889;27;19923;-56
2022/11/11 02:22:40;;;;;;;;;;;;;;;;;;5104862;28;19920;-55
2022/11/11 02:25:07;;;;;;;;;;;;;;;;;;5108924;28;19920;-55
2022/11/11 02:27:34;;;;;;;;;;;;;;;;;;5110738;27;19916;-56
2022/11/11 02:30:00;;;;;;;;;;;;;;;;;;5109646;27;20373;-55
2022/11/11 02:32:26;;;;;;;;;;;;;;;;;;5108867;27;19944;-56
2022/11/11 02:34:51;;;;;;;;;;;;;;;;;;5110369;27;19916;-55
2022/11/11 02:37:19;;;;;;;;;;;;;;;;;;5111317;28;19931;-55
2022/11/11 02:39:45;;;;;;;;;;;;;;;;;;5111262;27;20010;-55
2022/11/11 02:42:12;;;;;;;;;;;;;;;;;;5111986;27;20007;-55
2022/11/11 02:44:37;;;;;;;;;;;;;;;;;;5111213;28;19915;-54
2022/11/11 02:47:03;;;;;;;;;;;;;;;;;;5111591;28;19996;-56
2022/11/11 02:49:29;;;;;;;;;;;;;;;;;;5108802;27;19928;-53
2022/11/11 02:51:54;;;;;;;;;;;;;;;;;;5110552;27;19920;-56
2022/11/11 02:54:19;;;;;;;;;;;;;;;;;;5111265;27;19916;-56
2022/11/11 02:59:28;;;;;;;;;;;;;;;;;;5110547;28;19922;-56
2022/11/11 03:01:53;;;;;;;;;;;;;;;;;;5108081;28;19923;-57
2022/11/11 03:04:19;;;;;;;;;;;;;;;;;;5111376;27;19922;-56
2022/11/11 03:06:44;;;;;;;;;;;;;;;;;;5108698;27;19998;-56
2022/11/11 03:09:09;;;;;;;;;;;;;;;;;;5107408;27;19923;-57
2022/11/11 03:11:37;;;;;;;;;;;;;;;;;;5109886;27;20446;-56
2022/11/11 03:14:03;;;;;;;;;;;;;;;;;;5113155;27;19916;-56
2022/11/11 03:19:11;;;;;;;;;;;;;;;;;;5110317;27;19961;-57
2022/11/11 03:21:37;;;;;;;;;;;;;;;;;;5106557;27;20341;-57
2022/11/11 03:24:02;;;;;;;;;;;;;;;;;;5105031;27;19915;-56
2022/11/11 03:26:27;;;;;;;;;;;;;;;;;;5105492;28;19916;-55
2022/11/11 03:28:53;;;;;;;;;;;;;;;;;;5108492;27;19927;-55
2022/11/11 03:31:18;;;;;;;;;;;;;;;;;;5110248;27;20526;-57
2022/11/11 03:33:43;;;;;;;;;;;;;;;;;;5112879;27;19924;-56
2022/11/11 03:36:08;;;;;;;;;;;;;;;;;;5109879;27;20014;-56
2022/11/11 03:38:34;;;;;;;;;;;;;;;;;;5108244;27;20300;-56
2022/11/11 03:40:59;;;;;;;;;;;;;;;;;;5108418;27;19923;-56
2022/11/11 03:43:26;;;;;;;;;;;;;;;;;;5107718;27;19924;-56
2022/11/11 03:45:52;;;;;;;;;;;;;;;;;;5109423;28;19969;-56
2022/11/11 03:48:17;;;;;;;;;;;;;;;;;;5110505;28;20302;-56
2022/11/11 03:50:43;;;;;;;;;;;;;;;;;;5110426;28;19919;-56
2022/11/11 03:53:08;;;;;;;;;;;;;;;;;;5109526;27;19915;-57
2022/11/11 03:55:33;;;;;;;;;;;;;;;;;;5109665;28;19923;-56
2022/11/11 03:57:59;;;;;;;;;;;;;;;;;;5110614;28;19923;-56
2022/11/11 04:00:27;;;;;;;;;;;;;;;;;;5108690;28;20345;-56
2022/11/11 04:11:13;;;;;;;;;;;;;;;;;;5102152;27;20069;-56
2022/11/11 04:16:27;;;;;;;;;;;;;;;;;;5106538;28;19937;-55
2022/11/11 04:21:42;;;;;;;;;;;;;;;;;;5104952;28;20411;-55
2022/11/11 04:26:56;;;;;;;;;;;;;;;;;;5110567;27;19945;-56
2022/11/11 04:29:28;;;;;;;;;;;;;;;;;;5109515;28;20400;-55
2022/11/11 04:34:38;;;;;;;;;;;;;;;;;;5111935;27;19934;-55
2022/11/11 04:37:03;;;;;;;;;;;;;;;;;;5108585;28;19916;-55
2022/11/11 04:42:12;;;;;;;;;;;;;;;;;;5101225;28;20423;-56
2022/11/11 04:47:21;;;;;;;;;;;;;;;;;;5111934;28;20364;-55
2022/11/11 04:49:46;;;;;;;;;;;;;;;;;;5112994;28;19959;-56
2022/11/11 04:52:27;;;;;;;;;;;;;;;;;;5109669;28;19923;-57
2022/11/11 04:57:41;;;;;;;;;;;;;;;;;;5108637;28;19923;-56
2022/11/11 05:00:11;;;;;;;;;;;;;;;;;;5108626;28;19926;-56
2022/11/11 05:05:21;;;;;;;;;;;;;;;;;;5108924;28;19922;-56
2022/11/11 05:10:29;;;;;;;;;;;;;;;;;;5109188;28;19927;-55
2022/11/11 05:21:19;;;;;;;;;;;;;;;;;;5107127;28;19916;-57
2022/11/11 05:21:22;;;;;;;;;;;;;;;;;;5105413;28;19923;-56
2022/11/11 05:26:32;;;;;;;;;;;;;;;;;;5103677;28;19923;-56
2022/11/11 05:28:57;;;;;;;;;;;;;;;;;;5107778;28;19919;-56
2022/11/11 05:31:23;;;;;;;;;;;;;;;;;;5106607;28;19933;-56
2022/11/11 05:33:48;;;;;;;;;;;;;;;;;;5110923;28;19923;-55
2022/11/11 05:36:13;;;;;;;;;;;;;;;;;;5116749;27;19920;-56
2022/11/11 05:38:38;;;;;;;;;;;;;;;;;;5105295;28;19920;-55
2022/11/11 05:41:04;;;;;;;;;;;;;;;;;;5105726;27;19926;-55
2022/11/11 05:43:39;;;;;;;;;;;;;;;;;;5110611;27;19919;-55
2022/11/11 05:46:04;;;;;;;;;;;;;;;;;;5110665;27;19916;-55
2022/11/11 05:48:30;;;;;;;;;;;;;;;;;;5112747;27;19916;-55
2022/11/11 05:50:56;;;;;;;;;;;;;;;;;;5112168;28;20266;-55
2022/11/11 05:53:22;;;;;;;;;;;;;;;;;;5116556;27;19923;-56
2022/11/11 05:55:51;;;;;;;;;;;;;;;;;;5116759;27;19915;-56
2022/11/11 05:58:16;;;;;;;;;;;;;;;;;;5111423;27;19916;-55
2022/11/11 06:00:42;;;;;;;;;;;;;;;;;;5111633;27;19922;-55
2022/11/11 06:03:10;;;;;;;;;;;;;;;;;;5116738;27;19915;-56
2022/11/11 06:05:35;;;;;;;;;;;;;;;;;;5115490;27;19926;-56
2022/11/11 06:08:01;;;;;;;;;;;;;;;;;;5112012;27;19916;-60
2022/11/11 06:10:29;;;;;;;;;;;;;;;;;;5110537;27;20419;-59
2022/11/11 06:13:09;;;;;;;;;;;;;;;;;;5113107;27;19924;-59
2022/11/11 06:15:37;;;;;;;;;;;;;;;;;;5109341;27;19957;-59
2022/11/11 06:18:03;;;;;;;;;;;;;;;;;;5114864;27;19954;-58
2022/11/11 06:20:28;;;;;;;;;;;;;;;;;;5109178;27;19951;-59
2022/11/11 06:22:57;;;;;;;;;;;;;;;;;;5111528;27;19953;-59
2022/11/11 06:28:09;;;;;;;;;;;;;;;;;;5110613;27;20325;-58
2022/11/11 06:30:34;;;;;;;;;;;;;;;;;;5112662;27;19931;-58
2022/11/11 06:33:00;;;;;;;;;;;;;;;;;;5113490;27;20521;-58
2022/11/11 06:35:25;;;;;;;;;;;;;;;;;;5112968;27;19916;-59
2022/11/11 06:37:50;;;;;;;;;;;;;;;;;;5112520;27;19916;-58
2022/11/11 06:40:16;;;;;;;;;;;;;;;;;;5111607;27;19916;-58
2022/11/11 06:42:41;;;;;;;;;;;;;;;;;;5111761;27;19911;-56
2022/11/11 06:45:07;;;;;;;;;;;;;;;;;;5105488;27;19920;-57
2022/11/11 06:47:32;;;;;;;;;;;;;;;;;;5111331;27;19985;-58
2022/11/11 06:49:57;;;;;;;;;;;;;;;;;;5112308;28;19920;-58
2022/11/11 06:52:22;;;;;;;;;;;;;;;;;;5106293;27;20492;-59
2022/11/11 06:54:48;;;;;;;;;;;;;;;;;;5114031;27;19939;-59
2022/11/11 06:57:13;;;;;;;;;;;;;;;;;;5109708;28;19922;-59
2022/11/11 06:59:38;;;;;;;;;;;;;;;;;;5110963;27;19916;-57
2022/11/11 07:02:03;;;;;;;;;;;;;;;;;;5111309;27;20554;-58
2022/11/11 07:04:29;;;;;;;;;;;;;;;;;;5115046;27;19954;-58
2022/11/11 07:06:54;;;;;;;;;;;;;;;;;;5108580;28;19920;-58
2022/11/11 07:09:19;;;;;;;;;;;;;;;;;;5109571;27;20292;-58
2022/11/11 07:11:45;;;;;;;;;;;;;;;;;;5109140;28;19923;-58
2022/11/11 07:14:10;;;;;;;;;;;;;;;;;;5115517;27;20529;-58
2022/11/11 07:16:35;;;;;;;;;;;;;;;;;;5110713;28;19991;-58
2022/11/11 07:19:00;;;;;;;;;;;;;;;;;;5115101;27;19928;-58
2022/11/11 07:21:26;;;;;;;;;;;;;;;;;;5113584;27;20290;-59
2022/11/11 07:23:51;;;;;;;;;;;;;;;;;;5114973;27;19930;-59
2022/11/11 07:26:16;;;;;;;;;;;;;;;;;;5111503;27;19916;-59
2022/11/11 07:28:41;;;;;;;;;;;;;;;;;;5105895;27;20296;-58
2022/11/11 07:31:07;;;;;;;;;;;;;;;;;;5105955;27;19916;-59
2022/11/11 07:33:32;;;;;;;;;;;;;;;;;;5107029;28;20464;-58
2022/11/11 07:35:57;;;;;;;;;;;;;;;;;;5104831;27;19916;-58
2022/11/11 07:38:22;;;;;;;;;;;;;;;;;;5110753;27;19916;-57
2022/11/11 07:40:48;;;;;;;;;;;;;;;;;;5111027;28;19918;-58
2022/11/11 07:43:13;;;;;;;;;;;;;;;;;;5111687;27;21712;-58
2022/11/11 07:45:38;;;;;;;;;;;;;;;;;;5110515;27;20143;-59
2022/11/11 07:48:04;;;;;;;;;;;;;;;;;;5111192;28;19955;-58
2022/11/11 07:50:29;;;;;;;;;;;;;;;;;;5105889;28;19916;-59
2022/11/11 07:52:54;;;;;;;;;;;;;;;;;;5108557;28;20004;-59
2022/11/11 07:55:20;;;;;;;;;;;;;;;;;;5110565;28;19920;-59
2022/11/11 07:57:45;;;;;;;;;;;;;;;;;;5110639;28;19916;-59
2022/11/11 08:00:11;;;;;;;;;;;;;;;;;;5110575;28;19941;-59
2022/11/11 08:02:36;;;;;;;;;;;;;;;;;;5108814;28;19962;-59
2022/11/11 08:05:01;;;;;;;;;;;;;;;;;;5109372;28;19912;-58
2022/11/11 08:07:27;;;;;;;;;;;;;;;;;;5105596;28;20392;-59
2022/11/11 08:09:52;;;;;;;;;;;;;;;;;;5109284;28;19926;-58
2022/11/11 08:15:01;;;;;;;;;;;;;;;;;;5112316;27;19923;-58
2022/11/11 08:17:26;;;;;;;;;;;;;;;;;;5114205;27;19916;-58
2022/11/11 08:19:51;;;;;;;;;;;;;;;;;;5108919;28;19923;-59
2022/11/11 08:22:17;;;;;;;;;;;;;;;;;;5107369;28;19916;-59
2022/11/11 08:24:42;;;;;;;;;;;;;;;;;;5110976;27;19981;-59
2022/11/11 08:27:08;;;;;;;;;;;;;;;;;;5116670;28;19915;-59
2022/11/11 08:29:33;;;;;;;;;;;;;;;;;;5109952;28;20007;-58
2022/11/11 08:31:59;;;;;;;;;;;;;;;;;;5109288;28;20049;-59
2022/11/11 08:34:24;;;;;;;;;;;;;;;;;;5105201;28;20069;-59
2022/11/11 08:36:49;;;;;;;;;;;;;;;;;;5107975;28;19916;-59
2022/11/11 08:39:14;;;;;;;;;;;;;;;;;;5109687;27;20412;-59
2022/11/11 08:41:40;;;;;;;;;;;;;;;;;;5107295;28;19927;-59
2022/11/11 08:44:05;;;;;;;;;;;;;;;;;;5110282;28;20339;-58
2022/11/11 08:46:30;;;;;;;;;;;;;;;;;;5108952;28;19916;-59
2022/11/11 08:48:56;;;;;;;;;;;;;;;;;;5112226;28;19924;-58
2022/11/11 08:51:21;;;;;;;;;;;;;;;;;;5107870;28;19915;-59
2022/11/11 08:53:46;;;;;;;;;;;;;;;;;;5108347;28;19916;-59
2022/11/11 08:56:12;;;;;;;;;;;;;;;;;;5109366;28;20031;-59
2022/11/11 08:58:37;;;;;;;;;;;;;;;;;;5111772;28;19916;-59
2022/11/11 09:01:02;;;;;;;;;;;;;;;;;;5108963;28;19923;-59
2022/11/11 09:03:29;;;;;;;;;;;;;;;;;;5105824;28;20011;-60
2022/11/11 09:05:54;;;;;;;;;;;;;;;;;;5105843;28;19970;-59
2022/11/11 09:08:20;;;;;;;;;;;;;;;;;;5111133;28;19954;-59
2022/11/11 09:10:45;;;;;;;;;;;;;;;;;;5115154;27;19941;-59
2022/11/11 09:13:10;;;;;;;;;;;;;;;;;;5108216;27;19915;-59
2022/11/11 09:15:36;;;;;;;;;;;;;;;;;;5110385;27;20373;-60
2022/11/11 09:18:02;;;;;;;;;;;;;;;;;;5109450;27;19927;-59
2022/11/11 09:20:27;;;;;;;;;;;;;;;;;;5108943;27;20305;-59
2022/11/11 09:22:52;;;;;;;;;;;;;;;;;;5109385;28;19923;-59
2022/11/11 09:25:18;;;;;;;;;;;;;;;;;;5111806;27;19941;-60
2022/11/11 09:27:43;;;;;;;;;;;;;;;;;;5112034;27;19947;-58
2022/11/11 09:30:09;;;;;;;;;;;;;;;;;;5114014;27;19927;-59
2022/11/11 09:32:35;;;;;;;;;;;;;;;;;;5111426;28;20183;-60
2022/11/11 09:35:01;;;;;;;;;;;;;;;;;;5105654;27;19920;-59
2022/11/11 09:37:26;;;;;;;;;;;;;;;;;;5112362;27;20373;-59
2022/11/11 09:39:51;;;;;;;;;;;;;;;;;;5111194;27;19923;-59
2022/11/11 09:42:23;;;;;;;;;;;;;;;;;;5111855;27;20002;-59
2022/11/11 09:45:06;;;;;;;;;;;;;;;;;;5115375;27;20363;-59
2022/11/11 09:47:34;;;;;;;;;;;;;;;;;;5117254;27;19915;-58
2022/11/11 09:50:01;;;;;;;;;;;;;;;;;;5113151;28;19927;-59
2022/11/11 09:52:41;;;;;;;;;;;;;;;;;;5113981;27;20380;-58
2022/11/11 09:55:16;;;;;;;;;;;;;;;;;;5111931;28;19927;-58
2022/11/11 09:57:47;;;;;;;;;;;;;;;;;;5113911;27;20342;-59
2022/11/11 10:00:17;;;;;;;;;;;;;;;;;;5113001;27;19944;-59
2022/11/11 10:02:47;;;;;;;;;;;;;;;;;;5110052;27;19916;-58
2022/11/11 10:05:20;;;;;;;;;;;;;;;;;;5110583;28;19923;-58
2022/11/11 10:07:57;;;;;;;;;;;;;;;;;;5112749;27;20380;-58
2022/11/11 10:10:26;;;;;;;;;;;;;;;;;;5104723;28;19926;-58
2022/11/11 10:12:57;;;;;;;;;;;;;;;;;;5112281;27;20006;-59
2022/11/11 10:15:28;;;;;;;;;;;;;;;;;;5115174;27;19912;-59
2022/11/11 10:17:59;;;;;;;;;;;;;;;;;;5108481;27;19924;-58
2022/11/11 10:20:28;;;;;;;;;;;;;;;;;;5111738;28;19919;-58
2022/11/11 10:23:08;;;;;;;;;;;;;;;;;;5111239;27;21650;-58
2022/11/11 10:25:33;;;;;;;;;;;;;;;;;;5112100;27;19941;-58
2022/11/11 10:28:00;;;;;;;;;;;;;;;;;;5115579;27;20359;-58
2022/11/11 10:30:27;;;;;;;;;;;;;;;;;;5115657;27;19923;-59
2022/11/11 10:33:00;;;;;;;;;;;;;;;;;;5113542;27;19935;-58
2022/11/11 10:35:29;;;;;;;;;;;;;;;;;;5110888;27;19949;-58
2022/11/11 10:38:02;;;;;;;;;;;;;;;;;;5111408;27;19924;-58
2022/11/11 10:40:40;;;;;;;;;;;;;;;;;;5112753;27;19916;-58
2022/11/11 10:43:12;;;;;;;;;;;;;;;;;;5111891;27;19955;-58
2022/11/11 10:45:40;;;;;;;;;;;;;;;;;;5120199;27;19915;-58
2022/11/11 10:48:08;;;;;;;;;;;;;;;;;;5112350;27;19920;-59
2022/11/11 10:50:36;;;;;;;;;;;;;;;;;;5111483;27;20389;-59
2022/11/11 10:53:11;;;;;;;;;;;;;;;;;;5121125;27;19922;-58
2022/11/11 10:55:43;;;;;;;;;;;;;;;;;;5108180;28;19924;-58
2022/11/11 10:58:14;;;;;;;;;;;;;;;;;;5112004;28;19915;-58
2022/11/11 11:00:40;;;;;;;;;;;;;;;;;;5111856;28;19916;-58
2022/11/11 11:03:26;;;;;;;;;;;;;;;;;;5108852;28;20593;-58
2022/11/11 11:05:52;;;;;;;;;;;;;;;;;;5109386;28;19922;-58
2022/11/11 11:08:26;;;;;;;;;;;;;;;;;;5107766;27;20011;-59
2022/11/11 11:11:00;;;;;;;;;;;;;;;;;;5110331;28;19966;-59
2022/11/11 11:13:31;;;;;;;;;;;;;;;;;;5114532;27;19924;-58
2022/11/11 11:16:01;;;;;;;;;;;;;;;;;;5111421;28;19947;-59
2022/11/11 11:18:26;;;;;;;;;;;;;;;;;;5109653;27;20456;-59
2022/11/11 11:20:56;;;;;;;;;;;;;;;;;;5110443;27;20031;-59
2022/11/11 11:23:48;;;;;;;;;;;;;;;;;;5108897;27;20022;-59
2022/11/11 11:26:14;;;;;;;;;;;;;;;;;;5109379;27;19974;-59
2022/11/11 11:28:56;;;;;;;;;;;;;;;;;;5109437;27;19938;-60
2022/11/11 11:31:38;;;;;;;;;;;;;;;;;;5105991;27;19916;-59
2022/11/11 11:34:03;;;;;;;;;;;;;;;;;;5116355;27;19937;-59
2022/11/11 11:36:29;;;;;;;;;;;;;;;;;;5105728;28;19916;-59
2022/11/11 11:38:54;;;;;;;;;;;;;;;;;;5111975;27;19931;-59
2022/11/11 11:41:35;;;;;;;;;;;;;;;;;;5104668;27;20392;-59
2022/11/11 11:44:01;;;;;;;;;;;;;;;;;;5111696;27;20018;-59
2022/11/11 11:46:26;;;;;;;;;;;;;;;;;;5113821;27;20014;-59
2022/11/11 11:48:51;;;;;;;;;;;;;;;;;;5109346;27;19920;-59
2022/11/11 11:51:41;;;;;;;;;;;;;;;;;;5107859;27;19986;-59
2022/11/11 11:54:10;;;;;;;;;;;;;;;;;;5107403;27;20286;-59
2022/11/11 11:56:44;;;;;;;;;;;;;;;;;;5109673;28;19959;-59
2022/11/11 11:59:25;;;;;;;;;;;;;;;;;;5110627;27;19916;-60
2022/11/11 12:02:08;;;;;;;;;;;;;;;;;;5112809;27;19915;-59
2022/11/11 12:04:39;;;;;;;;;;;;;;;;;;5109172;27;19924;-59
2022/11/11 12:07:04;;;;;;;;;;;;;;;;;;5108147;27;19920;-60
2022/11/11 12:09:33;;;;;;;;;;;;;;;;;;5106071;27;19972;-60
2022/11/11 12:12:03;;;;;;;;;;;;;;;;;;5107771;27;20237;-60
2022/11/11 12:14:47;;;;;;;;;;;;;;;;;;5106319;27;20517;-60
2022/11/11 12:17:15;;;;;;;;;;;;;;;;;;5109704;28;19915;-60
2022/11/11 12:19:47;;;;;;;;;;;;;;;;;;5109378;28;20002;-60
2022/11/11 12:22:13;;;;;;;;;;;;;;;;;;5106785;27;19915;-60
2022/11/11 12:24:56;;;;;;;;;;;;;;;;;;5105872;27;20411;-60
2022/11/11 12:27:21;;;;;;;;;;;;;;;;;;5109418;28;20400;-59
2022/11/11 12:29:50;;;;;;;;;;;;;;;;;;5109537;27;19927;-60
2022/11/11 12:32:33;;;;;;;;;;;;;;;;;;5103466;28;20368;-60
2022/11/11 12:34:59;;;;;;;;;;;;;;;;;;5098308;28;20376;-60
2022/11/11 12:37:36;;;;;;;;;;;;;;;;;;5109255;28;19916;-59
2022/11/11 12:40:18;;;;;;;;;;;;;;;;;;5110112;27;19923;-60
2022/11/11 12:42:56;;;;;;;;;;;;;;;;;;5109484;27;20297;-60
2022/11/11 12:45:36;;;;;;;;;;;;;;;;;;5112814;28;20462;-60
2022/11/11 12:48:20;;;;;;;;;;;;;;;;;;5105159;28;20400;-59
2022/11/11 12:50:51;;;;;;;;;;;;;;;;;;5112238;28;20207;-60
2022/11/11 12:53:24;;;;;;;;;;;;;;;;;;5108213;28;19941;-59
2022/11/11 12:56:05;;;;;;;;;;;;;;;;;;5109724;28;19916;-60
2022/11/11 12:58:36;;;;;;;;;;;;;;;;;;5109906;28;20007;-60
2022/11/11 13:01:04;;;;;;;;;;;;;;;;;;5105852;28;19916;-60
2022/11/11 13:03:29;;;;;;;;;;;;;;;;;;5109349;28;20377;-60
2022/11/11 13:06:10;;;;;;;;;;;;;;;;;;5105508;28;19934;-60
2022/11/11 13:08:53;;;;;;;;;;;;;;;;;;5108655;28;19926;-60
2022/11/11 13:11:18;;;;;;;;;;;;;;;;;;5104402;28;19920;-59
2022/11/11 13:13:59;;;;;;;;;;;;;;;;;;5108875;28;19923;-56
2022/11/11 13:16:24;;;;;;;;;;;;;;;;;;5108828;28;20394;-55
2022/11/11 13:18:53;;;;;;;;;;;;;;;;;;5105391;28;19968;-56
2022/11/11 13:21:20;;;;;;;;;;;;;;;;;;5110607;28;20043;-56
2022/11/11 13:23:45;;;;;;;;;;;;;;;;;;5109775;28;20332;-56
2022/11/11 13:26:38;;;;;;;;;;;;;;;;;;5110157;28;19916;-55
2022/11/11 13:29:25;;;;;;;;;;;;;;;;;;5105912;28;20454;-55
2022/11/11 13:31:51;;;;;;;;;;;;;;;;;;5107441;28;19951;-55
2022/11/11 13:34:17;;;;;;;;;;;;;;;;;;5111118;28;21300;-55
2022/11/11 13:36:44;;;;;;;;;;;;;;;;;;5108748;28;20372;-60
2022/11/11 13:39:21;;;;;;;;;;;;;;;;;;5109874;28;20355;-60
2022/11/11 13:41:49;;;;;;;;;;;;;;;;;;5133878;27;19923;-60
2022/11/11 13:44:20;;;;;;;;;;;;;;;;;;5110102;28;19916;-60
2022/11/11 13:46:45;;;;;;;;;;;;;;;;;;5107596;28;19980;-61
2022/11/11 13:49:20;;;;;;;;;;;;;;;;;;5108627;28;20361;-60
2022/11/11 13:51:45;;;;;;;;;;;;;;;;;;5108414;28;20087;-60
2022/11/11 13:54:29;;;;;;;;;;;;;;;;;;5109366;27;20006;-56
2022/11/11 13:57:02;;;;;;;;;;;;;;;;;;5112650;28;19954;-55
2022/11/11 13:59:28;;;;;;;;;;;;;;;;;;5110950;27;19972;-56
2022/11/11 14:02:12;;;;;;;;;;;;;;;;;;5109206;27;19924;-57
2022/11/11 14:04:56;;;;;;;;;;;;;;;;;;5109704;28;19924;-55
2022/11/11 14:07:39;;;;;;;;;;;;;;;;;;5111300;28;20365;-58
2022/11/11 14:10:05;;;;;;;;;;;;;;;;;;5111568;28;19919;-56
2022/11/11 14:12:35;;;;;;;;;;;;;;;;;;5107199;28;19924;-56
2022/11/11 14:15:02;;;;;;;;;;;;;;;;;;5109339;28;19915;-57
2022/11/11 14:17:28;;;;;;;;;;;;;;;;;;5110116;27;19916;-56
2022/11/11 14:19:54;;;;;;;;;;;;;;;;;;5110037;27;19923;-55
2022/11/11 14:22:28;;;;;;;;;;;;;;;;;;5111277;28;19918;-55
2022/11/11 14:24:53;;;;;;;;;;;;;;;;;;5110232;27;20430;-56
2022/11/11 14:27:23;;;;;;;;;;;;;;;;;;5111534;28;19912;-55
2022/11/11 14:29:53;;;;;;;;;;;;;;;;;;5110911;28;20385;-55
2022/11/11 14:32:21;;;;;;;;;;;;;;;;;;5117105;27;19912;-55
2022/11/11 14:35:18;;;;;;;;;;;;;;;;;;5112270;27;20015;-57
2022/11/11 14:37:44;;;;;;;;;;;;;;;;;;5077590;27;19911;-55
2022/11/11 14:40:11;;;;;;;;;;;;;;;;;;5112161;28;19916;-56
2022/11/11 14:42:36;;;;;;;;;;;;;;;;;;5111703;27;19997;-56
2022/11/11 14:45:02;;;;;;;;;;;;;;;;;;5112772;28;19916;-57
2022/11/11 14:47:34;;;;;;;;;;;;;;;;;;5111885;27;19919;-56
2022/11/11 14:50:00;;;;;;;;;;;;;;;;;;5104271;28;19972;-60
2022/11/11 14:52:28;;;;;;;;;;;;;;;;;;5111931;27;19923;-59
2022/11/11 14:55:12;;;;;;;;;;;;;;;;;;5111593;28;19923;-60
2022/11/11 14:57:45;;;;;;;;;;;;;;;;;;5119328;27;19918;-59
2022/11/11 15:00:15;;;;;;;;;;;;;;;;;;5110106;27;20037;-60
2022/11/11 15:02:45;;;;;;;;;;;;;;;;;;5142673;27;20526;-59
2022/11/11 15:05:16;;;;;;;;;;;;;;;;;;5111455;27;19969;-60
2022/11/11 15:07:41;;;;;;;;;;;;;;;;;;5110587;28;19927;-59
2022/11/11 15:10:16;;;;;;;;;;;;;;;;;;5111898;27;19919;-62
2022/11/11 15:12:41;;;;;;;;;;;;;;;;;;5106134;28;19919;-62
2022/11/11 15:15:18;;;;;;;;;;;;;;;;;;5110509;27;19964;-60
2022/11/11 15:17:49;;;;;;;;;;;;;;;;;;5111786;27;20433;-60
2022/11/11 15:20:34;;;;;;;;;;;;;;;;;;5110778;27;19916;-60
2022/11/11 15:23:02;;;;;;;;;;;;;;;;;;5104305;28;19938;-60
2022/11/11 15:25:27;;;;;;;;;;;;;;;;;;5110971;28;19920;-60
2022/11/11 15:27:54;;;;;;;;;;;;;;;;;;5109557;28;20538;-60
2022/11/11 15:30:24;;;;;;;;;;;;;;;;;;5110198;27;19920;-60
2022/11/11 15:32:50;;;;;;;;;;;;;;;;;;5114655;27;19922;-60
2022/11/11 15:35:18;;;;;;;;;;;;;;;;;;5107487;28;19924;-60
2022/11/11 15:37:50;;;;;;;;;;;;;;;;;;5109176;28;19916;-59
2022/11/11 15:40:18;;;;;;;;;;;;;;;;;;5107669;28;20404;-59
2022/11/11 15:42:48;;;;;;;;;;;;;;;;;;5107337;28;20316;-59
2022/11/11 15:45:24;;;;;;;;;;;;;;;;;;5109196;28;19920;-59
2022/11/11 15:47:50;;;;;;;;;;;;;;;;;;5108768;28;20022;-59
2022/11/11 15:50:22;;;;;;;;;;;;;;;;;;5132055;27;20109;-60
2022/11/11 15:52:53;;;;;;;;;;;;;;;;;;5106607;28;19923;-59
2022/11/11 15:55:22;;;;;;;;;;;;;;;;;;5107727;28;19919;-59
2022/11/11 15:57:48;;;;;;;;;;;;;;;;;;5107309;27;19930;-59
2022/11/11 16:00:22;;;;;;;;;;;;;;;;;;5108721;28;19916;-59
2022/11/11 16:02:48;;;;;;;;;;;;;;;;;;5106849;28;20423;-59
2022/11/11 16:05:17;;;;;;;;;;;;;;;;;;5109954;27;19919;-59
2022/11/11 16:07:43;;;;;;;;;;;;;;;;;;5108364;28;19916;-58
2022/11/11 16:10:29;;;;;;;;;;;;;;;;;;5106575;28;19919;-59
2022/11/11 16:13:00;;;;;;;;;;;;;;;;;;5108444;27;19915;-59
2022/11/11 16:15:31;;;;;;;;;;;;;;;;;;5108493;28;19942;-59
2022/11/11 16:17:59;;;;;;;;;;;;;;;;;;5110965;27;19920;-59
2022/11/11 16:20:29;;;;;;;;;;;;;;;;;;5111888;27;20462;-59
2022/11/11 16:22:56;;;;;;;;;;;;;;;;;;5104268;28;20485;-59
2022/11/11 16:25:22;;;;;;;;;;;;;;;;;;5104665;28;19954;-59
2022/11/11 16:27:47;;;;;;;;;;;;;;;;;;5111129;27;19959;-59
2022/11/11 16:30:17;;;;;;;;;;;;;;;;;;5107875;28;19927;-60
2022/11/11 16:32:42;;;;;;;;;;;;;;;;;;5109162;28;20365;-59
2022/11/11 16:35:40;;;;;;;;;;;;;;;;;;5104304;27;20006;-59
2022/11/11 16:38:07;;;;;;;;;;;;;;;;;;5064942;28;19927;-59
2022/11/11 16:40:32;;;;;;;;;;;;;;;;;;5114005;27;19919;-59
2022/11/11 16:43:16;;;;;;;;;;;;;;;;;;5108649;28;19924;-59
2022/11/11 16:45:51;;;;;;;;;;;;;;;;;;5108830;28;20453;-59
2022/11/11 16:48:32;;;;;;;;;;;;;;;;;;5109005;28;19916;-59
2022/11/11 16:51:00;;;;;;;;;;;;;;;;;;5103605;28;20416;-60
2022/11/11 16:53:32;;;;;;;;;;;;;;;;;;5108449;28;19916;-59
2022/11/11 16:55:58;;;;;;;;;;;;;;;;;;5108788;28;19915;-59
2022/11/11 16:58:23;;;;;;;;;;;;;;;;;;5107556;28;19961;-59
2022/11/11 17:00:48;;;;;;;;;;;;;;;;;;5107032;28;19916;-59
2022/11/11 17:03:15;;;;;;;;;;;;;;;;;;5103881;28;19920;-59
2022/11/11 17:05:49;;;;;;;;;;;;;;;;;;5104573;28;19916;-59
2022/11/11 17:08:33;;;;;;;;;;;;;;;;;;5111766;28;20407;-59
2022/11/11 17:10:59;;;;;;;;;;;;;;;;;;5107571;28;19924;-59
2022/11/11 17:13:27;;;;;;;;;;;;;;;;;;5106588;28;19922;-59
2022/11/11 17:15:57;;;;;;;;;;;;;;;;;;5105709;28;19942;-60
2022/11/11 17:18:22;;;;;;;;;;;;;;;;;;5108697;28;19918;-59
2022/11/11 17:20:48;;;;;;;;;;;;;;;;;;5107775;28;19921;-59
2022/11/11 17:23:13;;;;;;;;;;;;;;;;;;5106251;28;19934;-60
2022/11/11 17:25:38;;;;;;;;;;;;;;;;;;5108942;28;19923;-59
2022/11/11 17:28:04;;;;;;;;;;;;;;;;;;5108539;28;19990;-59
2022/11/11 17:30:29;;;;;;;;;;;;;;;;;;5107781;28;19945;-59
2022/11/11 17:32:54;;;;;;;;;;;;;;;;;;5110983;27;19970;-59
2022/11/11 17:35:19;;;;;;;;;;;;;;;;;;5110875;28;19941;-59
2022/11/11 17:37:45;;;;;;;;;;;;;;;;;;5112212;27;20411;-59
2022/11/11 17:40:10;;;;;;;;;;;;;;;;;;5112097;27;19938;-59
2022/11/11 17:42:36;;;;;;;;;;;;;;;;;;5109747;28;19919;-60
2022/11/11 17:45:02;;;;;;;;;;;;;;;;;;5114062;27;19959;-58
2022/11/11 17:47:27;;;;;;;;;;;;;;;;;;5112289;27;19920;-59
2022/11/11 17:49:52;;;;;;;;;;;;;;;;;;5111904;27;20446;-59
2022/11/11 17:52:18;;;;;;;;;;;;;;;;;;5109149;27;19916;-59
2022/11/11 17:54:43;;;;;;;;;;;;;;;;;;5108848;27;19924;-59
2022/11/11 17:57:09;;;;;;;;;;;;;;;;;;5109657;27;19915;-59
2022/11/11 17:59:34;;;;;;;;;;;;;;;;;;5108977;28;19988;-54
2022/11/11 18:02:00;;;;;;;;;;;;;;;;;;5110294;27;19916;-58
2022/11/11 18:04:26;;;;;;;;;;;;;;;;;;5109998;28;19954;-60
2022/11/11 18:06:51;;;;;;;;;;;;;;;;;;5110580;27;20381;-58
2022/11/11 18:09:16;;;;;;;;;;;;;;;;;;5109718;27;19920;-59
2022/11/11 18:11:41;;;;;;;;;;;;;;;;;;5108242;28;19915;-58
2022/11/11 18:14:07;;;;;;;;;;;;;;;;;;5110748;27;20416;-58